sensor_id;sensor_type;location;lat;lon;timestamp;P1;durP1;ratioP1;P2;durP2;ratioP2
16820;SDS011;8527;49.740;6.604;2022-10-28T00:01:31;14.70;;;7.90;;
16820;SDS011;8527;49.740;6.604;2022-10-28T00:06:33;21.95;;;9.02;;
16820;SDS011;8527;49.740;6.604;2022-10-28T00:11:33;21.40;;;8.75;;
16820;SDS011;8527;49.740;6.604;2022-10-28T00:16:32;24.67;;;8.20;;
16820;SDS011;8527;49.740;6.604;2022-10-28T00:21:35;21.80;;;8.90;;
16820;SDS011;8527;49.740;6.604;2022-10-28T00:26:35;19.67;;;7.30;;
16820;SDS011;8527;49.740;6.604;2022-10-28T00:31:36;20.75;;;8.55;;
16820;SDS011;8527;49.740;6.604;2022-10-28T00:36:39;17.33;;;8.55;;
16820;SDS011;8527;49.740;6.604;2022-10-28T00:41:40;17.45;;;8.90;;
16820;SDS011;8527;49.740;6.604;2022-10-28T00:46:41;19.15;;;8.57;;
16820;SDS011;8527;49.740;6.604;2022-10-28T00:51:44;17.55;;;7.78;;
16820;SDS011;8527;49.740;6.604;2022-10-28T00:56:47;21.48;;;7.95;;
16820;SDS011;8527;49.740;6.604;2022-10-28T01:01:48;18.58;;;8.00;;
16820;SDS011;8527;49.740;6.604;2022-10-28T01:06:49;15.27;;;8.10;;
16820;SDS011;8527;49.740;6.604;2022-10-28T01:11:52;22.48;;;8.88;;
16820;SDS011;8527;49.740;6.604;2022-10-28T01:17:04;18.10;;;8.73;;
16820;SDS011;8527;49.740;6.604;2022-10-28T01:27:22;19.75;;;8.60;;
16820;SDS011;8527;49.740;6.604;2022-10-28T01:32:47;16.77;;;8.02;;
16820;SDS011;8527;49.740;6.604;2022-10-28T01:37:52;19.58;;;7.25;;
16820;SDS011;8527;49.740;6.604;2022-10-28T01:43:01;17.25;;;7.38;;
16820;SDS011;8527;49.740;6.604;2022-10-28T01:48:08;15.40;;;7.43;;
16820;SDS011;8527;49.740;6.604;2022-10-28T01:53:13;19.27;;;6.93;;
16820;SDS011;8527;49.740;6.604;2022-10-28T01:58:16;12.20;;;6.43;;
16820;SDS011;8527;49.740;6.604;2022-10-28T02:03:21;20.73;;;7.28;;
16820;SDS011;8527;49.740;6.604;2022-10-28T02:08:21;18.67;;;6.82;;
16820;SDS011;8527;49.740;6.604;2022-10-28T02:13:33;14.68;;;7.13;;
16820;SDS011;8527;49.740;6.604;2022-10-28T02:18:45;18.00;;;6.10;;
16820;SDS011;8527;49.740;6.604;2022-10-28T02:23:54;19.10;;;5.82;;
16820;SDS011;8527;49.740;6.604;2022-10-28T02:28:55;13.52;;;6.20;;
16820;SDS011;8527;49.740;6.604;2022-10-28T02:34:02;23.17;;;6.32;;
16820;SDS011;8527;49.740;6.604;2022-10-28T02:39:05;17.20;;;6.75;;
16820;SDS011;8527;49.740;6.604;2022-10-28T02:44:05;21.48;;;5.72;;
16820;SDS011;8527;49.740;6.604;2022-10-28T02:49:10;12.63;;;5.28;;
16820;SDS011;8527;49.740;6.604;2022-10-28T02:54:11;18.95;;;5.78;;
16820;SDS011;8527;49.740;6.604;2022-10-28T02:59:15;16.90;;;5.60;;
16820;SDS011;8527;49.740;6.604;2022-10-28T03:04:16;13.88;;;5.32;;
16820;SDS011;8527;49.740;6.604;2022-10-28T03:09:15;17.55;;;5.60;;
16820;SDS011;8527;49.740;6.604;2022-10-28T03:14:13;10.77;;;4.68;;
16820;SDS011;8527;49.740;6.604;2022-10-28T03:19:11;21.88;;;5.90;;
16820;SDS011;8527;49.740;6.604;2022-10-28T03:24:15;18.95;;;5.82;;
16820;SDS011;8527;49.740;6.604;2022-10-28T03:29:14;19.27;;;6.53;;
16820;SDS011;8527;49.740;6.604;2022-10-28T03:34:12;17.85;;;5.85;;
16820;SDS011;8527;49.740;6.604;2022-10-28T03:39:11;20.80;;;5.88;;
16820;SDS011;8527;49.740;6.604;2022-10-28T03:44:12;15.38;;;5.28;;
16820;SDS011;8527;49.740;6.604;2022-10-28T03:49:13;14.63;;;4.97;;
16820;SDS011;8527;49.740;6.604;2022-10-28T03:54:11;16.48;;;5.63;;
16820;SDS011;8527;49.740;6.604;2022-10-28T03:59:12;18.95;;;5.80;;
16820;SDS011;8527;49.740;6.604;2022-10-28T04:04:11;21.55;;;5.22;;
16820;SDS011;8527;49.740;6.604;2022-10-28T04:09:09;19.45;;;5.68;;
16820;SDS011;8527;49.740;6.604;2022-10-28T04:14:07;16.65;;;6.53;;
16820;SDS011;8527;49.740;6.604;2022-10-28T04:19:08;25.08;;;9.50;;
16820;SDS011;8527;49.740;6.604;2022-10-28T04:24:07;16.88;;;5.70;;
16820;SDS011;8527;49.740;6.604;2022-10-28T04:29:05;21.70;;;6.22;;
16820;SDS011;8527;49.740;6.604;2022-10-28T04:34:03;22.27;;;10.25;;
16820;SDS011;8527;49.740;6.604;2022-10-28T04:39:04;21.63;;;8.32;;
16820;SDS011;8527;49.740;6.604;2022-10-28T04:44:03;25.00;;;7.50;;
16820;SDS011;8527;49.740;6.604;2022-10-28T04:49:01;12.85;;;6.32;;
16820;SDS011;8527;49.740;6.604;2022-10-28T04:54:00;21.75;;;7.93;;
16820;SDS011;8527;49.740;6.604;2022-10-28T04:59:01;17.77;;;7.88;;
16820;SDS011;8527;49.740;6.604;2022-10-28T05:03:59;22.58;;;8.38;;
16820;SDS011;8527;49.740;6.604;2022-10-28T05:08:57;19.25;;;8.63;;
16820;SDS011;8527;49.740;6.604;2022-10-28T05:14:01;18.45;;;8.18;;
16820;SDS011;8527;49.740;6.604;2022-10-28T05:19:00;15.85;;;8.73;;
16820;SDS011;8527;49.740;6.604;2022-10-28T05:23:58;23.80;;;8.98;;
16820;SDS011;8527;49.740;6.604;2022-10-28T05:28:57;20.85;;;9.05;;
16820;SDS011;8527;49.740;6.604;2022-10-28T05:33:57;20.27;;;8.10;;
16820;SDS011;8527;49.740;6.604;2022-10-28T05:38:56;20.15;;;8.35;;
16820;SDS011;8527;49.740;6.604;2022-10-28T05:43:54;18.85;;;8.98;;
16820;SDS011;8527;49.740;6.604;2022-10-28T05:48:52;19.08;;;9.00;;
16820;SDS011;8527;49.740;6.604;2022-10-28T05:53:53;15.15;;;8.13;;
16820;SDS011;8527;49.740;6.604;2022-10-28T05:58:52;18.48;;;9.05;;
16820;SDS011;8527;49.740;6.604;2022-10-28T06:03:50;20.30;;;8.20;;
16820;SDS011;8527;49.740;6.604;2022-10-28T06:08:48;20.92;;;9.35;;
16820;SDS011;8527;49.740;6.604;2022-10-28T06:13:49;21.98;;;8.85;;
16820;SDS011;8527;49.740;6.604;2022-10-28T06:18:48;17.00;;;8.43;;
16820;SDS011;8527;49.740;6.604;2022-10-28T06:23:46;23.20;;;8.00;;
16820;SDS011;8527;49.740;6.604;2022-10-28T06:28:46;22.95;;;7.85;;
16820;SDS011;8527;49.740;6.604;2022-10-28T06:33:50;20.08;;;8.23;;
16820;SDS011;8527;49.740;6.604;2022-10-28T06:38:51;15.13;;;7.60;;
16820;SDS011;8527;49.740;6.604;2022-10-28T06:43:55;19.70;;;8.15;;
16820;SDS011;8527;49.740;6.604;2022-10-28T06:48:56;16.23;;;7.28;;
16820;SDS011;8527;49.740;6.604;2022-10-28T06:53:59;15.85;;;7.60;;
16820;SDS011;8527;49.740;6.604;2022-10-28T06:59:00;17.13;;;7.97;;
16820;SDS011;8527;49.740;6.604;2022-10-28T07:04:01;26.95;;;8.20;;
16820;SDS011;8527;49.740;6.604;2022-10-28T07:08:59;29.02;;;10.60;;
16820;SDS011;8527;49.740;6.604;2022-10-28T07:14:03;34.60;;;12.82;;
16820;SDS011;8527;49.740;6.604;2022-10-28T07:19:02;31.30;;;10.00;;
16820;SDS011;8527;49.740;6.604;2022-10-28T07:24:00;44.83;;;17.00;;
16820;SDS011;8527;49.740;6.604;2022-10-28T07:28:59;31.08;;;12.63;;
16820;SDS011;8527;49.740;6.604;2022-10-28T07:34:00;28.95;;;10.55;;
16820;SDS011;8527;49.740;6.604;2022-10-28T07:38:58;25.30;;;9.77;;
16820;SDS011;8527;49.740;6.604;2022-10-28T07:43:59;20.02;;;8.45;;
16820;SDS011;8527;49.740;6.604;2022-10-28T07:49:07;31.63;;;12.52;;
16820;SDS011;8527;49.740;6.604;2022-10-28T07:54:07;19.80;;;8.77;;
16820;SDS011;8527;49.740;6.604;2022-10-28T07:59:06;23.63;;;9.93;;
16820;SDS011;8527;49.740;6.604;2022-10-28T08:04:09;29.98;;;8.85;;
16820;SDS011;8527;49.740;6.604;2022-10-28T08:09:07;24.15;;;10.52;;
16820;SDS011;8527;49.740;6.604;2022-10-28T08:14:05;19.42;;;7.78;;
16820;SDS011;8527;49.740;6.604;2022-10-28T08:19:06;15.45;;;7.65;;
16820;SDS011;8527;49.740;6.604;2022-10-28T08:24:08;21.67;;;8.18;;
16820;SDS011;8527;49.740;6.604;2022-10-28T08:29:08;19.40;;;8.35;;
16820;SDS011;8527;49.740;6.604;2022-10-28T08:34:10;19.45;;;7.43;;
16820;SDS011;8527;49.740;6.604;2022-10-28T08:39:08;17.80;;;8.05;;
16820;SDS011;8527;49.740;6.604;2022-10-28T08:44:14;21.38;;;7.63;;
16820;SDS011;8527;49.740;6.604;2022-10-28T08:49:30;21.05;;;8.20;;
16820;SDS011;8527;49.740;6.604;2022-10-28T08:54:33;19.77;;;7.75;;
16820;SDS011;8527;49.740;6.604;2022-10-28T08:59:36;21.05;;;7.43;;
16820;SDS011;8527;49.740;6.604;2022-10-28T09:04:41;27.30;;;6.82;;
16820;SDS011;8527;49.740;6.604;2022-10-28T09:09:40;24.77;;;6.80;;
16820;SDS011;8527;49.740;6.604;2022-10-28T09:14:48;18.15;;;6.43;;
16820;SDS011;8527;49.740;6.604;2022-10-28T09:20:02;16.95;;;5.43;;
16820;SDS011;8527;49.740;6.604;2022-10-28T09:25:12;15.93;;;5.85;;
16820;SDS011;8527;49.740;6.604;2022-10-28T09:30:26;10.63;;;4.80;;
16820;SDS011;8527;49.740;6.604;2022-10-28T09:35:35;15.63;;;5.13;;
16820;SDS011;8527;49.740;6.604;2022-10-28T09:40:46;17.23;;;4.55;;
16820;SDS011;8527;49.740;6.604;2022-10-28T09:45:49;15.30;;;4.28;;
16820;SDS011;8527;49.740;6.604;2022-10-28T09:50:53;16.42;;;4.05;;
16820;SDS011;8527;49.740;6.604;2022-10-28T09:55:55;17.40;;;4.25;;
16820;SDS011;8527;49.740;6.604;2022-10-28T10:00:54;19.00;;;4.15;;
16820;SDS011;8527;49.740;6.604;2022-10-28T10:05:55;14.10;;;4.53;;
16820;SDS011;8527;49.740;6.604;2022-10-28T10:11:00;18.10;;;4.28;;
16820;SDS011;8527;49.740;6.604;2022-10-28T10:16:04;14.70;;;4.22;;
16820;SDS011;8527;49.740;6.604;2022-10-28T10:21:12;22.20;;;4.72;;
16820;SDS011;8527;49.740;6.604;2022-10-28T10:26:14;21.58;;;5.15;;
16820;SDS011;8527;49.740;6.604;2022-10-28T10:31:17;14.93;;;4.30;;
16820;SDS011;8527;49.740;6.604;2022-10-28T10:36:20;18.40;;;4.80;;
16820;SDS011;8527;49.740;6.604;2022-10-28T10:41:32;16.45;;;4.95;;
16820;SDS011;8527;49.740;6.604;2022-10-28T10:46:32;14.65;;;4.50;;
16820;SDS011;8527;49.740;6.604;2022-10-28T10:51:33;18.02;;;4.68;;
16820;SDS011;8527;49.740;6.604;2022-10-28T10:56:32;19.17;;;4.50;;
16820;SDS011;8527;49.740;6.604;2022-10-28T11:01:31;17.52;;;4.43;;
16820;SDS011;8527;49.740;6.604;2022-10-28T11:06:35;19.15;;;4.30;;
16820;SDS011;8527;49.740;6.604;2022-10-28T11:11:36;18.33;;;4.80;;
16820;SDS011;8527;49.740;6.604;2022-10-28T11:16:48;16.73;;;4.53;;
16820;SDS011;8527;49.740;6.604;2022-10-28T11:21:57;22.00;;;5.05;;
16820;SDS011;8527;49.740;6.604;2022-10-28T11:27:09;14.30;;;4.40;;
16820;SDS011;8527;49.740;6.604;2022-10-28T11:32:20;23.85;;;4.88;;
16820;SDS011;8527;49.740;6.604;2022-10-28T11:37:30;18.45;;;4.40;;
16820;SDS011;8527;49.740;6.604;2022-10-28T11:42:44;19.27;;;4.90;;
16820;SDS011;8527;49.740;6.604;2022-10-28T11:47:54;24.75;;;4.70;;
16820;SDS011;8527;49.740;6.604;2022-10-28T11:53:20;16.63;;;4.78;;
16820;SDS011;8527;49.740;6.604;2022-10-28T11:58:35;16.92;;;4.88;;
16820;SDS011;8527;49.740;6.604;2022-10-28T12:04:03;23.00;;;4.85;;
16820;SDS011;8527;49.740;6.604;2022-10-28T12:09:15;18.17;;;4.20;;
16820;SDS011;8527;49.740;6.604;2022-10-28T12:14:21;21.98;;;4.68;;
16820;SDS011;8527;49.740;6.604;2022-10-28T12:19:29;17.95;;;4.60;;
16820;SDS011;8527;49.740;6.604;2022-10-28T12:24:35;25.08;;;4.32;;
16820;SDS011;8527;49.740;6.604;2022-10-28T12:29:37;19.48;;;4.28;;
16820;SDS011;8527;49.740;6.604;2022-10-28T12:34:47;15.98;;;4.35;;
16820;SDS011;8527;49.740;6.604;2022-10-28T12:40:05;26.85;;;5.18;;
16820;SDS011;8527;49.740;6.604;2022-10-28T12:45:11;23.02;;;5.13;;
16820;SDS011;8527;49.740;6.604;2022-10-28T12:50:16;18.07;;;4.60;;
16820;SDS011;8527;49.740;6.604;2022-10-28T12:55:34;15.63;;;4.68;;
16820;SDS011;8527;49.740;6.604;2022-10-28T13:00:42;14.40;;;4.65;;
16820;SDS011;8527;49.740;6.604;2022-10-28T13:05:47;23.45;;;4.82;;
16820;SDS011;8527;49.740;6.604;2022-10-28T13:10:55;21.60;;;4.82;;
16820;SDS011;8527;49.740;6.604;2022-10-28T13:16:07;20.40;;;4.43;;
16820;SDS011;8527;49.740;6.604;2022-10-28T13:21:18;18.17;;;5.10;;
16820;SDS011;8527;49.740;6.604;2022-10-28T13:26:27;13.50;;;4.40;;
16820;SDS011;8527;49.740;6.604;2022-10-28T13:31:37;17.35;;;4.40;;
16820;SDS011;8527;49.740;6.604;2022-10-28T13:36:38;20.35;;;4.53;;
16820;SDS011;8527;49.740;6.604;2022-10-28T13:41:41;17.95;;;4.70;;
16820;SDS011;8527;49.740;6.604;2022-10-28T13:52:21;20.45;;;4.28;;
16820;SDS011;8527;49.740;6.604;2022-10-28T13:57:24;22.30;;;4.70;;
16820;SDS011;8527;49.740;6.604;2022-10-28T14:02:27;21.73;;;4.88;;
16820;SDS011;8527;49.740;6.604;2022-10-28T14:07:33;21.30;;;4.90;;
16820;SDS011;8527;49.740;6.604;2022-10-28T14:12:35;22.27;;;5.07;;
16820;SDS011;8527;49.740;6.604;2022-10-28T14:17:40;18.55;;;4.80;;
16820;SDS011;8527;49.740;6.604;2022-10-28T14:22:39;20.27;;;5.10;;
16820;SDS011;8527;49.740;6.604;2022-10-28T14:27:41;15.55;;;4.40;;
16820;SDS011;8527;49.740;6.604;2022-10-28T14:32:41;20.60;;;4.53;;
16820;SDS011;8527;49.740;6.604;2022-10-28T14:38:00;19.02;;;5.15;;
16820;SDS011;8527;49.740;6.604;2022-10-28T14:43:22;25.48;;;5.15;;
16820;SDS011;8527;49.740;6.604;2022-10-28T14:48:44;13.32;;;4.40;;
16820;SDS011;8527;49.740;6.604;2022-10-28T14:53:57;28.63;;;5.13;;
16820;SDS011;8527;49.740;6.604;2022-10-28T14:59:02;14.57;;;4.50;;
16820;SDS011;8527;49.740;6.604;2022-10-28T15:04:15;18.92;;;4.85;;
16820;SDS011;8527;49.740;6.604;2022-10-28T15:09:16;19.05;;;5.00;;
16820;SDS011;8527;49.740;6.604;2022-10-28T15:14:26;19.85;;;4.93;;
16820;SDS011;8527;49.740;6.604;2022-10-28T15:19:32;20.23;;;4.95;;
16820;SDS011;8527;49.740;6.604;2022-10-28T15:24:32;19.33;;;5.13;;
16820;SDS011;8527;49.740;6.604;2022-10-28T15:29:33;15.25;;;5.03;;
16820;SDS011;8527;49.740;6.604;2022-10-28T15:34:32;19.42;;;5.30;;
16820;SDS011;8527;49.740;6.604;2022-10-28T15:39:33;24.90;;;5.60;;
16820;SDS011;8527;49.740;6.604;2022-10-28T15:44:36;25.33;;;5.13;;
16820;SDS011;8527;49.740;6.604;2022-10-28T15:49:36;17.25;;;5.40;;
16820;SDS011;8527;49.740;6.604;2022-10-28T15:54:36;15.63;;;5.10;;
16820;SDS011;8527;49.740;6.604;2022-10-28T15:59:41;17.50;;;5.00;;
16820;SDS011;8527;49.740;6.604;2022-10-28T16:04:42;17.27;;;5.35;;
16820;SDS011;8527;49.740;6.604;2022-10-28T16:09:44;22.80;;;5.05;;
16820;SDS011;8527;49.740;6.604;2022-10-28T16:14:46;19.88;;;4.70;;
16820;SDS011;8527;49.740;6.604;2022-10-28T16:19:50;19.65;;;5.38;;
16820;SDS011;8527;49.740;6.604;2022-10-28T16:24:51;16.05;;;4.90;;
16820;SDS011;8527;49.740;6.604;2022-10-28T16:29:55;17.45;;;4.80;;
16820;SDS011;8527;49.740;6.604;2022-10-28T16:34:54;22.38;;;5.30;;
16820;SDS011;8527;49.740;6.604;2022-10-28T16:39:53;20.63;;;5.43;;
16820;SDS011;8527;49.740;6.604;2022-10-28T16:44:55;22.33;;;5.65;;
16820;SDS011;8527;49.740;6.604;2022-10-28T16:49:56;18.05;;;5.05;;
16820;SDS011;8527;49.740;6.604;2022-10-28T16:54:57;12.32;;;4.72;;
16820;SDS011;8527;49.740;6.604;2022-10-28T16:59:58;21.90;;;5.68;;
16820;SDS011;8527;49.740;6.604;2022-10-28T17:04:57;24.20;;;5.07;;
16820;SDS011;8527;49.740;6.604;2022-10-28T17:09:59;21.20;;;5.47;;
16820;SDS011;8527;49.740;6.604;2022-10-28T17:15:00;22.42;;;5.70;;
16820;SDS011;8527;49.740;6.604;2022-10-28T17:19:58;23.50;;;5.60;;
16820;SDS011;8527;49.740;6.604;2022-10-28T17:24:59;18.95;;;5.38;;
16820;SDS011;8527;49.740;6.604;2022-10-28T17:30:00;20.65;;;5.68;;
16820;SDS011;8527;49.740;6.604;2022-10-28T17:34:59;18.42;;;5.28;;
16820;SDS011;8527;49.740;6.604;2022-10-28T17:40:00;26.40;;;5.75;;
16820;SDS011;8527;49.740;6.604;2022-10-28T17:45:04;18.45;;;5.18;;
16820;SDS011;8527;49.740;6.604;2022-10-28T17:50:04;19.70;;;6.20;;
16820;SDS011;8527;49.740;6.604;2022-10-28T17:55:04;20.95;;;7.50;;
16820;SDS011;8527;49.740;6.604;2022-10-28T18:00:07;15.90;;;5.88;;
16820;SDS011;8527;49.740;6.604;2022-10-28T18:05:07;20.02;;;5.60;;
16820;SDS011;8527;49.740;6.604;2022-10-28T18:10:06;23.15;;;5.90;;
16820;SDS011;8527;49.740;6.604;2022-10-28T18:15:09;23.90;;;6.18;;
16820;SDS011;8527;49.740;6.604;2022-10-28T18:20:08;22.25;;;6.88;;
16820;SDS011;8527;49.740;6.604;2022-10-28T18:25:07;17.25;;;5.20;;
16820;SDS011;8527;49.740;6.604;2022-10-28T18:30:09;28.52;;;7.13;;
16820;SDS011;8527;49.740;6.604;2022-10-28T18:35:08;17.70;;;5.30;;
16820;SDS011;8527;49.740;6.604;2022-10-28T18:40:07;19.88;;;5.30;;
16820;SDS011;8527;49.740;6.604;2022-10-28T18:45:09;18.25;;;6.00;;
16820;SDS011;8527;49.740;6.604;2022-10-28T18:50:08;17.98;;;5.45;;
16820;SDS011;8527;49.740;6.604;2022-10-28T18:55:07;20.60;;;5.90;;
16820;SDS011;8527;49.740;6.604;2022-10-28T19:00:09;17.42;;;5.38;;
16820;SDS011;8527;49.740;6.604;2022-10-28T19:05:09;17.58;;;6.15;;
16820;SDS011;8527;49.740;6.604;2022-10-28T19:10:13;25.80;;;4.93;;
16820;SDS011;8527;49.740;6.604;2022-10-28T19:15:14;16.15;;;5.30;;
16820;SDS011;8527;49.740;6.604;2022-10-28T19:20:15;21.00;;;5.60;;
16820;SDS011;8527;49.740;6.604;2022-10-28T19:25:17;16.27;;;5.28;;
16820;SDS011;8527;49.740;6.604;2022-10-28T19:30:19;21.85;;;5.90;;
16820;SDS011;8527;49.740;6.604;2022-10-28T19:35:17;18.05;;;5.53;;
16820;SDS011;8527;49.740;6.604;2022-10-28T19:40:16;19.38;;;5.03;;
16820;SDS011;8527;49.740;6.604;2022-10-28T19:45:14;20.25;;;5.30;;
16820;SDS011;8527;49.740;6.604;2022-10-28T19:50:15;17.50;;;4.70;;
16820;SDS011;8527;49.740;6.604;2022-10-28T19:55:14;14.27;;;4.72;;
16820;SDS011;8527;49.740;6.604;2022-10-28T20:00:12;19.75;;;6.15;;
16820;SDS011;8527;49.740;6.604;2022-10-28T20:05:11;15.98;;;5.20;;
16820;SDS011;8527;49.740;6.604;2022-10-28T20:10:13;19.02;;;5.40;;
16820;SDS011;8527;49.740;6.604;2022-10-28T20:15:11;17.75;;;5.00;;
16820;SDS011;8527;49.740;6.604;2022-10-28T20:20:10;18.95;;;5.85;;
16820;SDS011;8527;49.740;6.604;2022-10-28T20:25:09;22.08;;;6.50;;
16820;SDS011;8527;49.740;6.604;2022-10-28T20:30:11;23.10;;;5.85;;
16820;SDS011;8527;49.740;6.604;2022-10-28T20:35:10;24.58;;;5.00;;
16820;SDS011;8527;49.740;6.604;2022-10-28T20:40:09;23.73;;;6.63;;
16820;SDS011;8527;49.740;6.604;2022-10-28T20:45:10;19.35;;;6.88;;
16820;SDS011;8527;49.740;6.604;2022-10-28T20:50:09;29.42;;;6.15;;
16820;SDS011;8527;49.740;6.604;2022-10-28T20:55:08;16.63;;;5.20;;
16820;SDS011;8527;49.740;6.604;2022-10-28T21:00:07;37.13;;;14.85;;
16820;SDS011;8527;49.740;6.604;2022-10-28T21:05:12;20.98;;;8.02;;
16820;SDS011;8527;49.740;6.604;2022-10-28T21:10:10;21.70;;;5.60;;
16820;SDS011;8527;49.740;6.604;2022-10-28T21:15:14;21.38;;;5.97;;
16820;SDS011;8527;49.740;6.604;2022-10-28T21:20:12;16.20;;;5.55;;
16820;SDS011;8527;49.740;6.604;2022-10-28T21:25:13;25.10;;;6.07;;
16820;SDS011;8527;49.740;6.604;2022-10-28T21:30:14;27.10;;;7.75;;
16820;SDS011;8527;49.740;6.604;2022-10-28T21:35:13;21.00;;;6.45;;
16820;SDS011;8527;49.740;6.604;2022-10-28T21:40:11;17.48;;;5.70;;
16820;SDS011;8527;49.740;6.604;2022-10-28T21:45:10;20.17;;;6.72;;
16820;SDS011;8527;49.740;6.604;2022-10-28T21:50:14;31.85;;;7.25;;
16820;SDS011;8527;49.740;6.604;2022-10-28T21:55:13;22.40;;;7.05;;
16820;SDS011;8527;49.740;6.604;2022-10-28T22:00:12;20.05;;;5.95;;
16820;SDS011;8527;49.740;6.604;2022-10-28T22:05:13;15.20;;;4.43;;
16820;SDS011;8527;49.740;6.604;2022-10-28T22:10:12;15.02;;;4.70;;
16820;SDS011;8527;49.740;6.604;2022-10-28T22:15:10;12.85;;;4.35;;
16820;SDS011;8527;49.740;6.604;2022-10-28T22:20:14;12.90;;;4.82;;
16820;SDS011;8527;49.740;6.604;2022-10-28T22:25:12;13.65;;;4.90;;
16820;SDS011;8527;49.740;6.604;2022-10-28T22:30:14;21.42;;;5.97;;
16820;SDS011;8527;49.740;6.604;2022-10-28T22:35:15;14.88;;;5.03;;
16820;SDS011;8527;49.740;6.604;2022-10-28T22:40:13;15.75;;;5.13;;
16820;SDS011;8527;49.740;6.604;2022-10-28T22:45:14;15.32;;;5.88;;
16820;SDS011;8527;49.740;6.604;2022-10-28T22:50:15;15.85;;;5.07;;
16820;SDS011;8527;49.740;6.604;2022-10-28T22:55:17;16.35;;;5.57;;
16820;SDS011;8527;49.740;6.604;2022-10-28T23:00:19;17.75;;;5.43;;
16820;SDS011;8527;49.740;6.604;2022-10-28T23:05:22;23.85;;;6.07;;
16820;SDS011;8527;49.740;6.604;2022-10-28T23:10:21;22.98;;;7.45;;
16820;SDS011;8527;49.740;6.604;2022-10-28T23:15:19;12.98;;;5.45;;
16820;SDS011;8527;49.740;6.604;2022-10-28T23:20:21;15.60;;;4.88;;
16820;SDS011;8527;49.740;6.604;2022-10-28T23:25:21;18.13;;;5.03;;
16820;SDS011;8527;49.740;6.604;2022-10-28T23:30:19;26.15;;;6.57;;
16820;SDS011;8527;49.740;6.604;2022-10-28T23:35:20;15.77;;;5.05;;
16820;SDS011;8527;49.740;6.604;2022-10-28T23:40:19;18.65;;;6.63;;
16820;SDS011;8527;49.740;6.604;2022-10-28T23:45:17;15.20;;;5.30;;
16820;SDS011;8527;49.740;6.604;2022-10-28T23:50:24;16.85;;;5.43;;
16820;SDS011;8527;49.740;6.604;2022-10-28T23:55:25;15.77;;;4.50;;
